createdAt,value
2023-05-09T00:01:13.236Z,12.30
2023-05-09T00:03:40.582Z,12.30
2023-05-09T00:06:07.677Z,12.30
2023-05-09T00:08:34.885Z,12.30
2023-05-09T00:11:02.418Z,12.30
2023-05-09T00:13:29.301Z,12.30
2023-05-09T00:15:57.375Z,12.30
2023-05-09T00:18:24.398Z,12.20
2023-05-09T00:20:51.320Z,12.20
2023-05-09T00:23:18.168Z,12.30
2023-05-09T00:25:45.366Z,12.60
2023-05-09T00:28:12.255Z,12.30
2023-05-09T00:30:39.159Z,12.30
2023-05-09T00:33:06.294Z,12.50
2023-05-09T00:35:33.319Z,12.20
2023-05-09T00:38:00.237Z,12.20
2023-05-09T00:40:27.170Z,12.20
2023-05-09T00:42:55.840Z,12.10
2023-05-09T00:45:22.914Z,12.20
2023-05-09T00:47:49.803Z,12.10
2023-05-09T00:50:16.964Z,12.20
2023-05-09T00:52:43.856Z,12.10
2023-05-09T00:55:11.256Z,12.40
2023-05-09T00:57:38.349Z,12.20
2023-05-09T01:00:06.212Z,12.00
2023-05-09T01:02:33.197Z,12.00
2023-05-09T01:05:00.209Z,12.00
2023-05-09T01:07:40.313Z,12.00
2023-05-09T01:10:39.465Z,12.00
2023-05-09T01:13:15.833Z,11.90
2023-05-09T01:15:49.111Z,11.90
2023-05-09T01:18:37.996Z,11.80
2023-05-09T01:21:16.297Z,11.80
2023-05-09T01:24:05.205Z,11.80
2023-05-09T01:26:56.979Z,11.80
2023-05-09T01:29:44.552Z,11.80
2023-05-09T01:32:24.794Z,11.80
2023-05-09T01:34:55.890Z,11.70
2023-05-09T01:37:29.907Z,11.70
2023-05-09T01:40:01.366Z,11.70
2023-05-09T01:42:39.452Z,11.90
2023-05-09T01:45:07.868Z,11.60
2023-05-09T01:47:35.275Z,11.60
2023-05-09T01:50:03.878Z,11.80
2023-05-09T01:52:31.903Z,11.60
2023-05-09T01:55:01.247Z,11.60
2023-05-09T01:57:30.461Z,11.60
2023-05-09T01:59:59.048Z,11.70
2023-05-09T02:02:27.867Z,11.70
2023-05-09T02:04:58.590Z,11.80
2023-05-09T02:07:26.671Z,12.00
2023-05-09T02:09:56.398Z,12.00
2023-05-09T02:12:24.234Z,11.80
2023-05-09T02:14:51.438Z,11.80
2023-05-09T02:17:19.258Z,11.80
2023-05-09T02:19:46.095Z,11.70
2023-05-09T02:22:14.801Z,11.80
2023-05-09T02:24:44.037Z,11.70
2023-05-09T02:27:12.537Z,11.70
2023-05-09T02:29:44.519Z,11.70
2023-05-09T02:32:17.127Z,12.00
2023-05-09T02:34:45.270Z,11.60
2023-05-09T02:37:13.896Z,11.90
2023-05-09T02:39:40.902Z,11.50
2023-05-09T02:42:13.412Z,11.40
2023-05-09T02:44:40.233Z,11.40
2023-05-09T02:47:07.595Z,11.40
2023-05-09T02:49:34.762Z,11.40
2023-05-09T02:52:01.655Z,11.50
2023-05-09T02:54:28.792Z,11.40
2023-05-09T02:56:55.664Z,11.70
2023-05-09T02:59:22.560Z,11.40
2023-05-09T03:01:49.468Z,11.40
2023-05-09T03:04:16.549Z,11.60
2023-05-09T03:06:43.935Z,11.30
2023-05-09T03:09:11.120Z,11.50
2023-05-09T03:11:38.033Z,11.30
2023-05-09T03:14:05.251Z,11.60
2023-05-09T03:16:32.307Z,11.20
2023-05-09T03:18:59.094Z,11.40
2023-05-09T03:21:26.292Z,11.10
2023-05-09T03:23:53.145Z,11.10
2023-05-09T03:26:20.030Z,11.40
2023-05-09T03:28:46.992Z,11.10
2023-05-09T03:31:13.903Z,11.10
2023-05-09T03:33:40.788Z,11.10
2023-05-09T03:36:08.642Z,11.10
2023-05-09T03:38:35.582Z,11.10
2023-05-09T03:41:02.585Z,11.10
2023-05-09T03:43:29.424Z,11.10
2023-05-09T03:45:56.295Z,11.30
2023-05-09T03:48:23.111Z,11.20
2023-05-09T03:50:50.175Z,11.20
2023-05-09T03:53:17.020Z,11.40
2023-05-09T03:55:44.106Z,11.60
2023-05-09T03:58:12.039Z,11.30
2023-05-09T04:00:39.087Z,11.40
2023-05-09T04:03:06.228Z,11.50
2023-05-09T04:05:36.424Z,11.40
2023-05-09T04:08:04.300Z,11.50
2023-05-09T04:10:32.090Z,11.60
2023-05-09T04:12:59.181Z,12.00
2023-05-09T04:15:26.346Z,12.00
2023-05-09T04:17:53.226Z,11.90
2023-05-09T04:20:20.218Z,12.00
2023-05-09T04:22:47.421Z,12.30
2023-05-09T04:25:15.987Z,12.20
2023-05-09T04:27:43.163Z,12.30
2023-05-09T04:30:11.086Z,12.40
2023-05-09T04:32:38.819Z,12.50
2023-05-09T04:35:08.127Z,12.50
2023-05-09T04:37:35.045Z,12.60
2023-05-09T04:40:02.169Z,12.90
2023-05-09T04:42:28.983Z,12.70
2023-05-09T04:44:55.833Z,12.70
2023-05-09T04:47:22.720Z,13.00
2023-05-09T04:49:49.680Z,13.40
2023-05-09T04:52:16.727Z,13.50
2023-05-09T04:54:43.603Z,14.50
2023-05-09T04:57:17.786Z,15.10
2023-05-09T04:59:45.711Z,16.10
2023-05-09T05:02:13.001Z,17.10
2023-05-09T05:04:40.000Z,18.10
2023-05-09T05:07:06.860Z,19.10
2023-05-09T05:09:33.760Z,19.90
2023-05-09T05:12:03.625Z,20.90
2023-05-09T05:14:31.245Z,21.60
2023-05-09T05:16:58.096Z,22.40
2023-05-09T05:19:25.029Z,23.10
2023-05-09T05:21:51.969Z,24.00
2023-05-09T05:24:19.231Z,24.70
2023-05-09T05:26:46.886Z,25.40
2023-05-09T05:29:14.984Z,25.90
2023-05-09T05:31:42.854Z,26.30
2023-05-09T05:34:10.748Z,26.70
2023-05-09T05:36:38.610Z,27.10
2023-05-09T05:39:06.521Z,27.50
2023-05-09T05:41:33.370Z,28.00
2023-05-09T05:44:01.459Z,28.50
2023-05-09T05:46:28.637Z,29.10
2023-05-09T05:48:57.298Z,29.60
2023-05-09T05:51:25.196Z,30.10
2023-05-09T05:53:52.493Z,30.60
2023-05-09T05:56:21.718Z,31.20
2023-05-09T05:58:48.753Z,31.50
2023-05-09T06:01:15.633Z,31.90
2023-05-09T06:03:44.798Z,31.60
2023-05-09T06:06:13.425Z,31.50
2023-05-09T06:08:41.186Z,31.70
2023-05-09T06:11:09.267Z,31.60
2023-05-09T06:13:37.029Z,31.50
2023-05-09T06:16:18.681Z,31.70
2023-05-09T06:18:47.948Z,32.00
2023-05-09T06:21:14.911Z,31.90
2023-05-09T06:26:16.028Z,32.20
2023-05-09T06:28:44.804Z,31.90
2023-05-09T06:31:11.720Z,32.10
2023-05-09T06:33:38.726Z,32.50
2023-05-09T06:36:05.914Z,32.70
2023-05-09T06:38:34.556Z,32.90
2023-05-09T06:41:01.532Z,32.70
2023-05-09T06:43:28.549Z,32.80
2023-05-09T06:45:55.689Z,33.20
2023-05-09T06:48:23.987Z,34.20
2023-05-09T06:50:51.012Z,34.80
2023-05-09T06:53:18.086Z,35.20
2023-05-09T06:55:45.133Z,35.40
2023-05-09T06:58:12.141Z,35.70
2023-05-09T07:00:39.281Z,36.20
2023-05-09T07:03:09.272Z,36.70
2023-05-09T07:05:36.497Z,37.10
2023-05-09T07:08:04.046Z,37.60
2023-05-09T07:10:31.093Z,37.90
2023-05-09T07:12:58.104Z,37.90
2023-05-09T07:15:39.728Z,37.80
2023-05-09T07:18:08.790Z,37.90
2023-05-09T07:20:35.752Z,38.00
2023-05-09T07:23:06.280Z,37.50
2023-05-09T07:25:33.673Z,37.90
2023-05-09T07:28:01.054Z,38.60
2023-05-09T07:30:28.106Z,39.20
2023-05-09T07:32:55.460Z,39.40
2023-05-09T07:35:22.646Z,40.00
2023-05-09T07:37:50.242Z,40.60
2023-05-09T07:40:17.819Z,41.00
2023-05-09T07:42:49.913Z,41.50
2023-05-09T07:45:21.215Z,41.60
2023-05-09T07:47:50.097Z,41.70
2023-05-09T07:50:17.442Z,41.90
2023-05-09T07:52:44.334Z,42.10
2023-05-09T07:55:12.521Z,42.30
2023-05-09T07:57:40.088Z,42.10
2023-05-09T08:00:08.829Z,41.90
2023-05-09T08:02:35.922Z,40.50
2023-05-09T08:05:03.389Z,38.20
2023-05-09T08:07:30.372Z,36.00
2023-05-09T08:09:57.257Z,33.90
2023-05-09T08:12:24.254Z,32.20
2023-05-09T08:14:51.233Z,30.60
2023-05-09T08:17:18.653Z,29.40
2023-05-09T08:19:45.685Z,28.40
2023-05-09T08:22:21.680Z,27.50
2023-05-09T08:24:48.740Z,26.80
2023-05-09T08:27:15.790Z,26.10
2023-05-09T08:29:43.576Z,25.60
2023-05-09T08:32:10.601Z,25.20
2023-05-09T08:34:37.707Z,24.80
2023-05-09T08:37:05.044Z,24.50
2023-05-09T08:39:34.806Z,24.30
2023-05-09T08:42:02.548Z,24.00
2023-05-09T08:44:31.307Z,23.80
2023-05-09T08:47:02.954Z,23.40
2023-05-09T08:49:30.520Z,23.20
2023-05-09T08:51:58.494Z,23.00
2023-05-09T08:54:25.635Z,23.00
2023-05-09T08:56:52.581Z,22.90
2023-05-09T08:59:19.663Z,22.70
2023-05-09T09:01:47.437Z,22.70
2023-05-09T09:04:14.631Z,22.60
2023-05-09T09:06:42.677Z,22.60
2023-05-09T09:09:11.485Z,22.60
2023-05-09T09:11:40.465Z,22.60
2023-05-09T09:14:13.805Z,22.60
2023-05-09T09:16:43.602Z,22.40
2023-05-09T09:19:13.194Z,22.30
2023-05-09T09:21:47.167Z,22.20
2023-05-09T09:24:14.378Z,22.20
2023-05-09T09:26:48.726Z,22.30
2023-05-09T09:29:16.920Z,22.10
2023-05-09T09:31:48.358Z,22.00
2023-05-09T09:34:21.879Z,21.90
2023-05-09T09:36:49.174Z,21.90
2023-05-09T09:39:16.189Z,21.90
2023-05-09T09:41:44.728Z,21.80
2023-05-09T09:44:13.880Z,21.70
2023-05-09T09:46:50.880Z,21.70
2023-05-09T09:49:20.371Z,21.80
2023-05-09T09:51:58.275Z,21.90
2023-05-09T09:54:28.822Z,21.90
2023-05-09T09:56:56.975Z,22.00
2023-05-09T09:59:26.124Z,21.80
2023-05-09T10:01:56.000Z,21.80
2023-05-09T10:04:23.299Z,21.80
2023-05-09T10:06:57.810Z,21.80
2023-05-09T10:09:25.797Z,21.80
2023-05-09T10:11:53.835Z,21.80
2023-05-09T10:14:23.331Z,21.70
2023-05-09T10:16:53.559Z,21.60
2023-05-09T10:19:22.161Z,21.70
2023-05-09T10:21:54.912Z,21.70
2023-05-09T10:24:35.781Z,21.70
2023-05-09T10:27:06.620Z,21.70
2023-05-09T10:29:36.679Z,21.70
2023-05-09T10:32:17.489Z,21.70
2023-05-09T10:34:48.970Z,21.70
2023-05-09T10:37:16.922Z,21.70
2023-05-09T10:39:44.265Z,21.70
2023-05-09T10:42:13.744Z,21.70
2023-05-09T10:44:40.945Z,21.70
2023-05-09T10:47:08.317Z,21.70
2023-05-09T10:49:37.104Z,21.60
2023-05-09T10:52:04.502Z,21.60
2023-05-09T10:54:34.175Z,21.50
2023-05-09T10:57:01.299Z,21.50
2023-05-09T10:59:43.937Z,21.50
2023-05-09T11:02:15.907Z,21.60
2023-05-09T11:04:44.249Z,21.60
2023-05-09T11:07:27.910Z,21.60
2023-05-09T11:10:07.145Z,21.50
2023-05-09T11:12:33.967Z,21.50
2023-05-09T11:15:08.228Z,21.50
2023-05-09T11:17:38.680Z,21.50
2023-05-09T11:20:06.990Z,21.60
2023-05-09T11:22:44.612Z,21.50
2023-05-09T11:25:13.673Z,21.60
2023-05-09T11:27:45.933Z,21.70
2023-05-09T11:30:15.484Z,21.70
2023-05-09T11:32:55.392Z,21.80
2023-05-09T11:35:23.685Z,21.90
2023-05-09T11:38:02.202Z,21.90
2023-05-09T11:40:30.190Z,22.00
2023-05-09T11:42:59.061Z,22.10
2023-05-09T11:45:32.208Z,22.00
2023-05-09T11:48:00.502Z,22.00
2023-05-09T11:50:27.553Z,22.00
2023-05-09T11:52:54.634Z,22.00
2023-05-09T11:55:22.880Z,22.00
2023-05-09T11:57:54.318Z,22.00
2023-05-09T12:00:23.966Z,22.00
2023-05-09T12:02:52.668Z,22.00
2023-05-09T12:05:21.626Z,22.10
2023-05-09T12:07:49.329Z,22.10
2023-05-09T12:10:20.298Z,22.10
2023-05-09T12:12:49.567Z,22.20
2023-05-09T12:15:17.568Z,22.30
2023-05-09T12:17:47.071Z,22.40
2023-05-09T12:20:15.272Z,22.40
2023-05-09T12:22:52.575Z,22.40
2023-05-09T12:25:19.581Z,22.40
2023-05-09T12:27:46.513Z,22.40
2023-05-09T12:30:16.067Z,22.40
2023-05-09T12:32:43.918Z,22.40
2023-05-09T12:35:11.302Z,22.30
2023-05-09T12:37:39.126Z,22.30
2023-05-09T12:40:15.426Z,22.30
2023-05-09T12:42:46.480Z,22.40
2023-05-09T12:45:14.541Z,22.40
2023-05-09T12:47:42.184Z,22.40
2023-05-09T12:50:14.952Z,22.40
2023-05-09T12:53:01.283Z,22.50
2023-05-09T12:55:29.097Z,22.40
2023-05-09T12:58:01.739Z,22.50
2023-05-09T13:00:41.458Z,22.50
2023-05-09T13:03:20.960Z,22.50
2023-05-09T13:05:58.686Z,22.60
2023-05-09T13:08:25.873Z,22.70
2023-05-09T13:11:00.723Z,22.70
2023-05-09T13:13:31.743Z,22.80
2023-05-09T13:15:58.801Z,22.90
2023-05-09T13:18:25.953Z,22.80
2023-05-09T13:20:52.933Z,22.80
2023-05-09T13:23:20.055Z,22.80
2023-05-09T13:25:47.212Z,22.90
2023-05-09T13:28:14.088Z,22.90
2023-05-09T13:30:41.095Z,22.90
2023-05-09T13:33:23.760Z,23.00
2023-05-09T13:35:52.848Z,23.00
2023-05-09T13:38:22.983Z,23.00
2023-05-09T13:40:50.175Z,23.00
2023-05-09T13:43:17.215Z,23.00
2023-05-09T13:45:44.639Z,23.00
2023-05-09T13:48:11.802Z,23.00
2023-05-09T13:50:39.143Z,23.00
2023-05-09T13:53:06.228Z,23.00
2023-05-09T13:55:36.841Z,23.10
2023-05-09T13:58:04.124Z,23.20
2023-05-09T14:00:32.157Z,23.20
2023-05-09T14:02:59.315Z,23.20
2023-05-09T14:05:26.328Z,23.20
2023-05-09T14:07:53.692Z,23.20
2023-05-09T14:10:20.855Z,23.20
2023-05-09T14:12:48.429Z,23.10
2023-05-09T14:15:16.261Z,23.00
2023-05-09T14:17:43.617Z,23.00
2023-05-09T14:20:11.096Z,22.90
2023-05-09T14:22:38.162Z,22.90
2023-05-09T14:25:05.635Z,22.80
2023-05-09T14:27:34.037Z,22.70
2023-05-09T14:30:06.551Z,22.60
2023-05-09T14:32:33.513Z,22.50
2023-05-09T14:38:43.646Z,22.40
2023-05-09T14:41:10.970Z,22.40
2023-05-09T14:43:37.966Z,22.40
2023-05-09T14:46:05.462Z,22.50
2023-05-09T14:48:33.830Z,22.60
2023-05-09T14:51:01.331Z,22.60
2023-05-09T14:53:29.132Z,22.50
2023-05-09T14:55:56.240Z,22.50
2023-05-09T14:58:23.509Z,22.50
2023-05-09T15:00:50.578Z,22.50
2023-05-09T15:03:17.909Z,22.50
2023-05-09T15:05:45.052Z,22.50
2023-05-09T15:08:11.914Z,22.50
2023-05-09T15:10:38.847Z,22.50
2023-05-09T15:13:06.085Z,22.50
2023-05-09T15:15:34.409Z,22.50
2023-05-09T15:18:02.272Z,22.50
2023-05-09T15:20:29.288Z,22.50
2023-05-09T15:22:56.221Z,22.50
2023-05-09T15:25:23.461Z,22.50
2023-05-09T15:27:50.523Z,22.60
2023-05-09T15:30:17.902Z,22.50
2023-05-09T15:32:44.957Z,22.50
2023-05-09T15:35:12.078Z,22.50
2023-05-09T15:37:39.159Z,22.50
2023-05-09T15:40:07.506Z,22.50
2023-05-09T15:42:34.969Z,22.50
2023-05-09T15:45:02.067Z,22.50
2023-05-09T15:47:29.014Z,22.40
2023-05-09T15:49:55.876Z,22.40
2023-05-09T15:52:22.747Z,22.40
2023-05-09T15:54:50.305Z,22.50
2023-05-09T15:57:18.066Z,22.40
2023-05-09T15:59:45.018Z,22.40
2023-05-09T16:02:12.358Z,22.40
2023-05-09T16:04:39.326Z,22.40
2023-05-09T16:07:06.308Z,22.40
2023-05-09T16:09:33.349Z,22.40
2023-05-09T16:12:00.222Z,22.30
2023-05-09T16:14:27.532Z,22.20
2023-05-09T16:16:58.438Z,22.10
2023-05-09T16:19:25.449Z,22.00
2023-05-09T16:21:52.545Z,22.00
2023-05-09T16:24:19.505Z,21.90
2023-05-09T16:26:46.428Z,21.90
2023-05-09T16:29:13.736Z,21.80
2023-05-09T16:31:41.028Z,21.80
2023-05-09T16:34:08.119Z,21.80
2023-05-09T16:36:37.110Z,21.80
2023-05-09T16:39:03.980Z,21.80
2023-05-09T16:41:30.883Z,21.70
2023-05-09T16:43:58.627Z,21.80
2023-05-09T16:46:25.623Z,21.80
2023-05-09T16:48:52.942Z,21.80
2023-05-09T16:51:19.822Z,21.70
2023-05-09T16:53:46.965Z,21.70
2023-05-09T16:56:13.963Z,21.60
2023-05-09T16:58:41.782Z,21.50
2023-05-09T17:01:09.558Z,21.50
2023-05-09T17:03:36.539Z,21.40
2023-05-09T17:06:03.546Z,21.40
2023-05-09T17:08:30.456Z,21.40
2023-05-09T17:10:57.753Z,21.30
2023-05-09T17:13:24.905Z,21.30
2023-05-09T17:15:52.689Z,21.20
2023-05-09T17:18:33.402Z,21.20
2023-05-09T17:21:04.733Z,21.10
2023-05-09T17:23:31.840Z,21.00
2023-05-09T17:25:59.104Z,20.90
2023-05-09T17:28:26.112Z,20.80
2023-05-09T17:30:53.216Z,20.80
2023-05-09T17:33:20.754Z,20.40
2023-05-09T17:35:49.492Z,20.70
2023-05-09T17:38:16.727Z,20.60
2023-05-09T17:40:44.361Z,20.60
2023-05-09T17:43:13.078Z,20.60
2023-05-09T17:45:39.966Z,20.50
2023-05-09T17:48:07.285Z,20.40
2023-05-09T17:50:34.211Z,20.30
2023-05-09T17:53:01.182Z,20.20
2023-05-09T17:55:28.869Z,20.20
2023-05-09T17:57:55.707Z,20.20
2023-05-09T18:00:22.758Z,20.10
2023-05-09T18:02:51.117Z,20.00
2023-05-09T18:05:18.397Z,20.00
2023-05-09T18:07:45.362Z,19.90
2023-05-09T18:10:12.696Z,19.80
2023-05-09T18:12:39.869Z,19.70
2023-05-09T18:15:07.545Z,19.70
2023-05-09T18:17:34.535Z,19.60
2023-05-09T18:20:01.952Z,19.50
2023-05-09T18:22:28.883Z,19.60
2023-05-09T18:24:56.118Z,19.50
2023-05-09T18:27:23.168Z,19.40
2023-05-09T18:29:50.084Z,19.30
2023-05-09T18:32:18.360Z,19.30
2023-05-09T18:34:45.357Z,19.30
2023-05-09T18:37:12.273Z,19.20
2023-05-09T18:39:39.281Z,19.10
2023-05-09T18:42:06.442Z,19.10
2023-05-09T18:44:33.511Z,19.00
2023-05-09T18:47:00.602Z,18.90
2023-05-09T18:49:27.635Z,18.90
2023-05-09T18:51:56.369Z,18.80
2023-05-09T18:54:23.414Z,18.70
2023-05-09T18:56:50.518Z,18.60
2023-05-09T18:59:17.892Z,18.60
2023-05-09T19:01:45.020Z,18.50
2023-05-09T19:04:12.026Z,18.50
2023-05-09T19:06:39.075Z,18.50
2023-05-09T19:09:06.120Z,18.40
2023-05-09T19:11:33.072Z,18.40
2023-05-09T19:14:00.128Z,18.30
2023-05-09T19:16:27.233Z,18.30
2023-05-09T19:18:58.218Z,18.20
2023-05-09T19:21:25.658Z,18.20
2023-05-09T19:23:52.735Z,18.10
2023-05-09T19:26:21.802Z,18.10
2023-05-09T19:28:48.999Z,18.00
2023-05-09T19:31:16.341Z,18.00
2023-05-09T19:33:45.705Z,18.00
2023-05-09T19:36:13.513Z,18.20
2023-05-09T19:38:40.550Z,17.90
2023-05-09T19:41:07.784Z,17.90
2023-05-09T19:43:34.914Z,17.90
2023-05-09T19:46:01.990Z,17.90
2023-05-09T19:48:28.984Z,18.20
2023-05-09T19:51:00.787Z,17.90
2023-05-09T19:53:27.871Z,17.80
2023-05-09T19:55:54.841Z,17.80
2023-05-09T19:58:21.922Z,17.80
2023-05-09T20:00:48.927Z,17.70
2023-05-09T20:03:15.915Z,17.80
2023-05-09T20:05:42.945Z,17.90
2023-05-09T20:08:09.982Z,17.80
2023-05-09T20:10:37.509Z,17.70
2023-05-09T20:13:04.718Z,17.70
2023-05-09T20:15:31.787Z,17.60
2023-05-09T20:17:58.957Z,17.80
2023-05-09T20:20:26.198Z,17.80
2023-05-09T20:22:53.143Z,17.70
2023-05-09T20:25:20.071Z,17.60
2023-05-09T20:27:47.117Z,17.60
2023-05-09T20:30:14.442Z,17.60
2023-05-09T20:32:41.530Z,17.50
2023-05-09T20:35:09.372Z,17.50
2023-05-09T20:37:37.046Z,17.40
2023-05-09T20:40:07.328Z,17.50
2023-05-09T20:42:34.874Z,17.40
2023-05-09T20:45:02.165Z,17.30
2023-05-09T20:47:29.080Z,17.30
2023-05-09T20:49:58.093Z,17.20
2023-05-09T20:52:25.524Z,17.20
2023-05-09T20:54:52.595Z,17.10
2023-05-09T20:57:19.575Z,17.10
2023-05-09T20:59:46.458Z,17.60
2023-05-09T21:02:13.741Z,17.10
2023-05-09T21:04:40.708Z,17.00
2023-05-09T21:07:09.017Z,17.00
2023-05-09T21:09:36.194Z,16.90
2023-05-09T21:12:04.547Z,16.90
2023-05-09T21:14:31.727Z,16.80
2023-05-09T21:16:58.753Z,16.80
2023-05-09T21:19:25.991Z,16.70
2023-05-09T21:21:52.951Z,16.60
2023-05-09T21:24:19.826Z,16.50
2023-05-09T21:26:47.015Z,16.50
2023-05-09T21:29:14.403Z,16.40
2023-05-09T21:31:41.518Z,16.40
2023-05-09T21:34:10.269Z,16.30
2023-05-09T21:36:38.435Z,16.20
2023-05-09T21:39:09.054Z,16.10
2023-05-09T21:41:37.488Z,16.10
2023-05-09T21:44:05.172Z,16.00
2023-05-09T21:46:35.457Z,15.90
2023-05-09T21:49:02.513Z,15.90
2023-05-09T21:51:29.762Z,15.80
2023-05-09T21:53:56.631Z,15.80
2023-05-09T21:56:23.616Z,15.70
2023-05-09T21:58:50.544Z,15.60
2023-05-09T22:01:19.230Z,15.60
2023-05-09T22:03:46.466Z,15.60
2023-05-09T22:06:13.664Z,15.50
2023-05-09T22:08:40.637Z,15.40
2023-05-09T22:11:07.885Z,15.40
2023-05-09T22:13:36.388Z,15.40
2023-05-09T22:16:04.080Z,15.30
2023-05-09T22:18:31.389Z,15.30
2023-05-09T22:20:58.982Z,15.20
2023-05-09T22:23:25.974Z,15.20
2023-05-09T22:25:53.330Z,15.20
2023-05-09T22:28:20.346Z,15.10
2023-05-09T22:30:47.276Z,15.60
2023-05-09T22:33:14.350Z,15.10
2023-05-09T22:35:41.331Z,15.00
2023-05-09T22:38:08.249Z,15.00
2023-05-09T22:40:35.323Z,15.40
2023-05-09T22:43:02.316Z,15.00
2023-05-09T22:45:29.244Z,14.90
2023-05-09T22:47:56.273Z,14.90
2023-05-09T22:50:23.200Z,14.90
2023-05-09T22:52:50.494Z,15.30
2023-05-09T22:55:18.375Z,14.80
2023-05-09T22:57:45.544Z,14.80
2023-05-09T23:00:13.199Z,15.20
2023-05-09T23:02:43.302Z,14.70
2023-05-09T23:05:10.597Z,14.70
2023-05-09T23:07:37.719Z,14.20
2023-05-09T23:10:07.457Z,14.70
2023-05-09T23:12:34.362Z,14.60
2023-05-09T23:15:01.271Z,14.60
2023-05-09T23:17:28.198Z,14.60
2023-05-09T23:19:55.176Z,14.60
2023-05-09T23:22:22.125Z,14.60
2023-05-09T23:24:49.039Z,14.60
2023-05-09T23:27:16.108Z,14.70
2023-05-09T23:29:43.440Z,14.50
2023-05-09T23:32:10.463Z,14.50
2023-05-09T23:34:37.425Z,14.50
2023-05-09T23:37:04.539Z,14.40
2023-05-09T23:39:31.751Z,15.00
2023-05-09T23:41:58.823Z,14.50
2023-05-09T23:44:25.873Z,14.50
2023-05-09T23:46:52.857Z,14.50
2023-05-09T23:49:19.766Z,15.00
2023-05-09T23:51:46.728Z,14.50
2023-05-09T23:54:13.653Z,14.50
2023-05-09T23:56:40.711Z,14.50
2023-05-09T23:59:07.556Z,15.00
